sensor_id;sensor_type;location;lat;lon;timestamp;P1;durP1;ratioP1;P2;durP2;ratioP2
22665;SDS011;11499;49.486;11.104;2023-03-31T00:00:05;4.30;;;1.70;;
22665;SDS011;11499;49.486;11.104;2023-03-31T00:02:36;3.67;;;1.70;;
22665;SDS011;11499;49.486;11.104;2023-03-31T00:05:07;4.67;;;1.80;;
22665;SDS011;11499;49.486;11.104;2023-03-31T00:07:33;4.60;;;2.00;;
22665;SDS011;11499;49.486;11.104;2023-03-31T00:10:02;6.17;;;1.83;;
22665;SDS011;11499;49.486;11.104;2023-03-31T00:12:29;5.20;;;1.90;;
22665;SDS011;11499;49.486;11.104;2023-03-31T00:14:55;4.13;;;1.90;;
22665;SDS011;11499;49.486;11.104;2023-03-31T00:17:20;4.83;;;1.97;;
22665;SDS011;11499;49.486;11.104;2023-03-31T00:19:46;2.67;;;1.90;;
22665;SDS011;11499;49.486;11.104;2023-03-31T00:22:13;3.13;;;2.17;;
22665;SDS011;11499;49.486;11.104;2023-03-31T00:27:27;5.40;;;2.20;;
22665;SDS011;11499;49.486;11.104;2023-03-31T00:29:52;3.80;;;1.60;;
22665;SDS011;11499;49.486;11.104;2023-03-31T00:32:18;4.80;;;2.17;;
22665;SDS011;11499;49.486;11.104;2023-03-31T00:34:44;5.53;;;1.97;;
22665;SDS011;11499;49.486;11.104;2023-03-31T00:37:10;5.43;;;1.90;;
22665;SDS011;11499;49.486;11.104;2023-03-31T00:39:39;3.23;;;1.70;;
22665;SDS011;11499;49.486;11.104;2023-03-31T00:42:06;4.17;;;1.80;;
22665;SDS011;11499;49.486;11.104;2023-03-31T00:44:37;3.83;;;1.73;;
22665;SDS011;11499;49.486;11.104;2023-03-31T00:47:23;4.10;;;2.20;;
22665;SDS011;11499;49.486;11.104;2023-03-31T00:49:53;3.53;;;1.80;;
22665;SDS011;11499;49.486;11.104;2023-03-31T00:54:58;3.43;;;2.00;;
22665;SDS011;11499;49.486;11.104;2023-03-31T00:57:31;4.23;;;1.73;;
22665;SDS011;11499;49.486;11.104;2023-03-31T01:00:04;3.27;;;1.80;;
22665;SDS011;11499;49.486;11.104;2023-03-31T01:02:42;5.03;;;2.10;;
22665;SDS011;11499;49.486;11.104;2023-03-31T01:05:17;3.10;;;1.90;;
22665;SDS011;11499;49.486;11.104;2023-03-31T01:07:47;3.23;;;2.00;;
22665;SDS011;11499;49.486;11.104;2023-03-31T01:10:14;3.50;;;1.70;;
22665;SDS011;11499;49.486;11.104;2023-03-31T01:12:41;4.00;;;2.40;;
22665;SDS011;11499;49.486;11.104;2023-03-31T01:15:10;2.90;;;1.90;;
22665;SDS011;11499;49.486;11.104;2023-03-31T01:17:36;4.47;;;1.80;;
22665;SDS011;11499;49.486;11.104;2023-03-31T01:28:40;3.63;;;2.10;;
22665;SDS011;11499;49.486;11.104;2023-03-31T01:39:49;3.77;;;2.00;;
22665;SDS011;11499;49.486;11.104;2023-03-31T01:42:39;2.67;;;1.57;;
22665;SDS011;11499;49.486;11.104;2023-03-31T01:50:04;4.37;;;2.37;;
22665;SDS011;11499;49.486;11.104;2023-03-31T01:52:52;4.40;;;2.17;;
22665;SDS011;11499;49.486;11.104;2023-03-31T01:58:33;4.13;;;2.03;;
22665;SDS011;11499;49.486;11.104;2023-03-31T02:01:03;4.47;;;2.10;;
22665;SDS011;11499;49.486;11.104;2023-03-31T02:03:38;4.67;;;2.23;;
22665;SDS011;11499;49.486;11.104;2023-03-31T02:06:11;4.67;;;2.10;;
22665;SDS011;11499;49.486;11.104;2023-03-31T02:08:45;3.67;;;1.80;;
22665;SDS011;11499;49.486;11.104;2023-03-31T02:11:15;6.27;;;2.40;;
22665;SDS011;11499;49.486;11.104;2023-03-31T02:13:42;5.97;;;2.47;;
22665;SDS011;11499;49.486;11.104;2023-03-31T02:18:14;6.63;;;2.00;;
22665;SDS011;11499;49.486;11.104;2023-03-31T02:20:42;3.53;;;2.03;;
22665;SDS011;11499;49.486;11.104;2023-03-31T02:23:11;3.87;;;2.17;;
22665;SDS011;11499;49.486;11.104;2023-03-31T02:25:41;4.77;;;1.90;;
22665;SDS011;11499;49.486;11.104;2023-03-31T02:28:17;4.27;;;2.07;;
22665;SDS011;11499;49.486;11.104;2023-03-31T02:31:03;5.83;;;1.97;;
22665;SDS011;11499;49.486;11.104;2023-03-31T02:33:38;4.43;;;1.80;;
22665;SDS011;11499;49.486;11.104;2023-03-31T02:36:03;5.33;;;2.17;;
22665;SDS011;11499;49.486;11.104;2023-03-31T02:38:33;4.40;;;2.20;;
22665;SDS011;11499;49.486;11.104;2023-03-31T02:41:03;3.97;;;2.00;;
22665;SDS011;11499;49.486;11.104;2023-03-31T02:45:44;3.67;;;1.90;;
22665;SDS011;11499;49.486;11.104;2023-03-31T02:48:33;5.67;;;2.00;;
22665;SDS011;11499;49.486;11.104;2023-03-31T02:56:15;3.60;;;1.90;;
22665;SDS011;11499;49.486;11.104;2023-03-31T03:01:37;5.33;;;2.07;;
22665;SDS011;11499;49.486;11.104;2023-03-31T03:04:12;5.30;;;1.80;;
22665;SDS011;11499;49.486;11.104;2023-03-31T03:07:02;4.63;;;1.90;;
22665;SDS011;11499;49.486;11.104;2023-03-31T03:15:02;4.30;;;1.70;;
22665;SDS011;11499;49.486;11.104;2023-03-31T03:17:45;3.93;;;1.90;;
22665;SDS011;11499;49.486;11.104;2023-03-31T03:20:12;2.80;;;1.80;;
22665;SDS011;11499;49.486;11.104;2023-03-31T03:22:43;5.77;;;2.30;;
22665;SDS011;11499;49.486;11.104;2023-03-31T03:25:09;5.70;;;1.90;;
22665;SDS011;11499;49.486;11.104;2023-03-31T03:27:37;3.17;;;1.70;;
22665;SDS011;11499;49.486;11.104;2023-03-31T03:30:04;5.93;;;2.00;;
22665;SDS011;11499;49.486;11.104;2023-03-31T03:32:32;3.97;;;1.90;;
22665;SDS011;11499;49.486;11.104;2023-03-31T03:34:58;4.93;;;2.13;;
22665;SDS011;11499;49.486;11.104;2023-03-31T03:37:24;5.30;;;1.97;;
22665;SDS011;11499;49.486;11.104;2023-03-31T03:42:26;3.97;;;2.13;;
22665;SDS011;11499;49.486;11.104;2023-03-31T03:44:51;5.67;;;2.03;;
22665;SDS011;11499;49.486;11.104;2023-03-31T03:47:17;4.20;;;2.07;;
22665;SDS011;11499;49.486;11.104;2023-03-31T03:49:42;7.40;;;2.27;;
22665;SDS011;11499;49.486;11.104;2023-03-31T03:52:08;4.23;;;1.80;;
22665;SDS011;11499;49.486;11.104;2023-03-31T03:54:34;3.50;;;1.80;;
22665;SDS011;11499;49.486;11.104;2023-03-31T03:57:00;4.57;;;2.00;;
22665;SDS011;11499;49.486;11.104;2023-03-31T03:59:25;5.53;;;2.00;;
22665;SDS011;11499;49.486;11.104;2023-03-31T04:01:51;4.50;;;1.90;;
22665;SDS011;11499;49.486;11.104;2023-03-31T04:04:16;3.37;;;1.90;;
22665;SDS011;11499;49.486;11.104;2023-03-31T04:09:26;3.57;;;1.93;;
22665;SDS011;11499;49.486;11.104;2023-03-31T04:11:52;3.50;;;1.80;;
22665;SDS011;11499;49.486;11.104;2023-03-31T04:14:17;4.63;;;1.97;;
22665;SDS011;11499;49.486;11.104;2023-03-31T04:16:43;4.50;;;2.10;;
22665;SDS011;11499;49.486;11.104;2023-03-31T04:19:11;4.10;;;2.20;;
22665;SDS011;11499;49.486;11.104;2023-03-31T04:21:37;4.17;;;1.80;;
22665;SDS011;11499;49.486;11.104;2023-03-31T04:24:09;3.80;;;2.00;;
22665;SDS011;11499;49.486;11.104;2023-03-31T04:26:40;3.23;;;1.97;;
22665;SDS011;11499;49.486;11.104;2023-03-31T04:29:12;5.47;;;2.07;;
22665;SDS011;11499;49.486;11.104;2023-03-31T04:31:40;5.43;;;2.20;;
22665;SDS011;11499;49.486;11.104;2023-03-31T04:35:08;5.70;;;2.50;;
22665;SDS011;11499;49.486;11.104;2023-03-31T04:37:34;4.97;;;2.20;;
22665;SDS011;11499;49.486;11.104;2023-03-31T04:40:00;4.40;;;2.37;;
22665;SDS011;11499;49.486;11.104;2023-03-31T04:42:32;4.77;;;2.30;;
22665;SDS011;11499;49.486;11.104;2023-03-31T04:44:57;4.93;;;2.33;;
22665;SDS011;11499;49.486;11.104;2023-03-31T04:47:23;5.23;;;2.33;;
22665;SDS011;11499;49.486;11.104;2023-03-31T04:49:48;7.03;;;2.77;;
22665;SDS011;11499;49.486;11.104;2023-03-31T04:52:14;5.27;;;2.73;;
22665;SDS011;11499;49.486;11.104;2023-03-31T04:54:40;4.97;;;2.70;;
22665;SDS011;11499;49.486;11.104;2023-03-31T04:57:05;8.67;;;2.93;;
22665;SDS011;11499;49.486;11.104;2023-03-31T04:59:31;4.97;;;2.50;;
22665;SDS011;11499;49.486;11.104;2023-03-31T05:01:56;4.80;;;2.30;;
22665;SDS011;11499;49.486;11.104;2023-03-31T05:06:24;5.37;;;2.47;;
22665;SDS011;11499;49.486;11.104;2023-03-31T05:08:50;5.70;;;2.63;;
22665;SDS011;11499;49.486;11.104;2023-03-31T05:11:15;5.43;;;2.60;;
22665;SDS011;11499;49.486;11.104;2023-03-31T05:13:41;5.77;;;2.63;;
22665;SDS011;11499;49.486;11.104;2023-03-31T05:16:07;6.33;;;3.30;;
22665;SDS011;11499;49.486;11.104;2023-03-31T05:18:34;4.40;;;2.60;;
22665;SDS011;11499;49.486;11.104;2023-03-31T05:23:38;4.10;;;2.70;;
22665;SDS011;11499;49.486;11.104;2023-03-31T05:26:04;7.10;;;2.63;;
22665;SDS011;11499;49.486;11.104;2023-03-31T05:28:31;5.63;;;2.60;;
22665;SDS011;11499;49.486;11.104;2023-03-31T05:33:46;7.87;;;2.80;;
22665;SDS011;11499;49.486;11.104;2023-03-31T05:36:12;5.40;;;2.40;;
22665;SDS011;11499;49.486;11.104;2023-03-31T05:38:39;7.33;;;2.70;;
22665;SDS011;11499;49.486;11.104;2023-03-31T05:41:05;6.80;;;2.90;;
22665;SDS011;11499;49.486;11.104;2023-03-31T05:43:33;7.00;;;3.00;;
22665;SDS011;11499;49.486;11.104;2023-03-31T05:45:59;7.30;;;3.13;;
22665;SDS011;11499;49.486;11.104;2023-03-31T05:48:25;5.33;;;2.33;;
22665;SDS011;11499;49.486;11.104;2023-03-31T05:50:51;4.67;;;2.20;;
22665;SDS011;11499;49.486;11.104;2023-03-31T05:53:21;7.13;;;2.97;;
22665;SDS011;11499;49.486;11.104;2023-03-31T05:55:46;5.30;;;2.53;;
22665;SDS011;11499;49.486;11.104;2023-03-31T06:01:00;7.20;;;2.50;;
22665;SDS011;11499;49.486;11.104;2023-03-31T06:03:26;4.57;;;2.80;;
22665;SDS011;11499;49.486;11.104;2023-03-31T06:05:52;6.50;;;2.47;;
22665;SDS011;11499;49.486;11.104;2023-03-31T06:08:19;4.53;;;2.27;;
22665;SDS011;11499;49.486;11.104;2023-03-31T06:10:45;5.10;;;2.40;;
22665;SDS011;11499;49.486;11.104;2023-03-31T06:13:10;4.77;;;2.40;;
22665;SDS011;11499;49.486;11.104;2023-03-31T06:15:36;4.13;;;2.47;;
22665;SDS011;11499;49.486;11.104;2023-03-31T06:18:01;5.60;;;2.70;;
22665;SDS011;11499;49.486;11.104;2023-03-31T06:20:27;4.10;;;2.40;;
22665;SDS011;11499;49.486;11.104;2023-03-31T06:22:52;4.27;;;2.30;;
22665;SDS011;11499;49.486;11.104;2023-03-31T06:27:53;5.93;;;3.40;;
22665;SDS011;11499;49.486;11.104;2023-03-31T06:30:18;6.13;;;2.93;;
22665;SDS011;11499;49.486;11.104;2023-03-31T06:32:44;7.00;;;2.97;;
22665;SDS011;11499;49.486;11.104;2023-03-31T06:35:09;5.07;;;2.93;;
22665;SDS011;11499;49.486;11.104;2023-03-31T06:37:35;6.60;;;2.70;;
22665;SDS011;11499;49.486;11.104;2023-03-31T06:40:00;4.37;;;2.80;;
22665;SDS011;11499;49.486;11.104;2023-03-31T06:42:26;5.43;;;2.87;;
22665;SDS011;11499;49.486;11.104;2023-03-31T06:44:52;4.07;;;2.50;;
22665;SDS011;11499;49.486;11.104;2023-03-31T06:47:19;4.33;;;2.47;;
22665;SDS011;11499;49.486;11.104;2023-03-31T06:49:45;5.63;;;2.50;;
22665;SDS011;11499;49.486;11.104;2023-03-31T06:54:05;4.50;;;2.40;;
22665;SDS011;11499;49.486;11.104;2023-03-31T06:56:30;5.27;;;2.83;;
22665;SDS011;11499;49.486;11.104;2023-03-31T06:58:56;6.63;;;2.97;;
22665;SDS011;11499;49.486;11.104;2023-03-31T07:01:21;7.97;;;3.30;;
22665;SDS011;11499;49.486;11.104;2023-03-31T07:03:47;5.23;;;2.97;;
22665;SDS011;11499;49.486;11.104;2023-03-31T07:06:12;4.80;;;3.27;;
22665;SDS011;11499;49.486;11.104;2023-03-31T07:08:38;6.00;;;2.97;;
22665;SDS011;11499;49.486;11.104;2023-03-31T07:11:03;5.37;;;3.13;;
22665;SDS011;11499;49.486;11.104;2023-03-31T07:13:29;4.40;;;2.87;;
22665;SDS011;11499;49.486;11.104;2023-03-31T07:15:55;4.77;;;3.10;;
22665;SDS011;11499;49.486;11.104;2023-03-31T07:21:06;7.43;;;4.03;;
22665;SDS011;11499;49.486;11.104;2023-03-31T07:23:32;9.00;;;4.60;;
22665;SDS011;11499;49.486;11.104;2023-03-31T07:25:59;7.90;;;3.93;;
22665;SDS011;11499;49.486;11.104;2023-03-31T07:28:26;7.63;;;3.83;;
22665;SDS011;11499;49.486;11.104;2023-03-31T07:30:55;7.77;;;3.47;;
22665;SDS011;11499;49.486;11.104;2023-03-31T07:33:21;8.50;;;3.77;;
22665;SDS011;11499;49.486;11.104;2023-03-31T07:35:46;6.47;;;4.00;;
22665;SDS011;11499;49.486;11.104;2023-03-31T07:38:12;7.50;;;3.80;;
22665;SDS011;11499;49.486;11.104;2023-03-31T07:40:38;8.50;;;4.07;;
22665;SDS011;11499;49.486;11.104;2023-03-31T07:43:04;7.10;;;3.77;;
22665;SDS011;11499;49.486;11.104;2023-03-31T07:48:12;5.07;;;3.67;;
22665;SDS011;11499;49.486;11.104;2023-03-31T07:50:37;8.07;;;4.50;;
22665;SDS011;11499;49.486;11.104;2023-03-31T07:53:03;5.10;;;3.53;;
22665;SDS011;11499;49.486;11.104;2023-03-31T07:55:29;7.70;;;3.80;;
22665;SDS011;11499;49.486;11.104;2023-03-31T07:57:55;5.77;;;3.30;;
22665;SDS011;11499;49.486;11.104;2023-03-31T08:00:20;6.00;;;4.00;;
22665;SDS011;11499;49.486;11.104;2023-03-31T08:02:46;6.13;;;3.80;;
22665;SDS011;11499;49.486;11.104;2023-03-31T08:05:13;8.80;;;4.20;;
22665;SDS011;11499;49.486;11.104;2023-03-31T08:07:41;7.30;;;4.23;;
22665;SDS011;11499;49.486;11.104;2023-03-31T08:10:10;6.03;;;3.80;;
22665;SDS011;11499;49.486;11.104;2023-03-31T08:12:38;7.03;;;3.93;;
22665;SDS011;11499;49.486;11.104;2023-03-31T08:16:43;7.83;;;4.13;;
22665;SDS011;11499;49.486;11.104;2023-03-31T08:19:08;7.37;;;4.57;;
22665;SDS011;11499;49.486;11.104;2023-03-31T08:21:34;7.97;;;4.53;;
22665;SDS011;11499;49.486;11.104;2023-03-31T08:24:00;9.80;;;5.00;;
22665;SDS011;11499;49.486;11.104;2023-03-31T08:26:25;7.07;;;4.53;;
22665;SDS011;11499;49.486;11.104;2023-03-31T08:28:51;7.97;;;4.97;;
22665;SDS011;11499;49.486;11.104;2023-03-31T08:31:21;5.30;;;4.40;;
22665;SDS011;11499;49.486;11.104;2023-03-31T08:33:48;9.40;;;4.83;;
22665;SDS011;11499;49.486;11.104;2023-03-31T08:36:13;11.50;;;5.37;;
22665;SDS011;11499;49.486;11.104;2023-03-31T08:38:40;7.53;;;5.10;;
22665;SDS011;11499;49.486;11.104;2023-03-31T08:41:07;6.80;;;5.17;;
22665;SDS011;11499;49.486;11.104;2023-03-31T08:43:40;5.80;;;4.60;;
22665;SDS011;11499;49.486;11.104;2023-03-31T08:48:46;7.73;;;4.60;;
22665;SDS011;11499;49.486;11.104;2023-03-31T08:51:19;6.13;;;4.07;;
22665;SDS011;11499;49.486;11.104;2023-03-31T08:54:01;6.10;;;3.83;;
22665;SDS011;11499;49.486;11.104;2023-03-31T08:56:29;6.17;;;3.87;;
22665;SDS011;11499;49.486;11.104;2023-03-31T08:59:04;5.57;;;3.70;;
22665;SDS011;11499;49.486;11.104;2023-03-31T09:06:37;9.50;;;5.90;;
22665;SDS011;11499;49.486;11.104;2023-03-31T09:12:28;6.53;;;4.83;;
22665;SDS011;11499;49.486;11.104;2023-03-31T09:15:28;5.13;;;3.53;;
22665;SDS011;11499;49.486;11.104;2023-03-31T09:18:13;6.00;;;3.80;;
22665;SDS011;11499;49.486;11.104;2023-03-31T09:20:51;6.00;;;3.57;;
22665;SDS011;11499;49.486;11.104;2023-03-31T09:26:05;5.67;;;3.33;;
22665;SDS011;11499;49.486;11.104;2023-03-31T09:28:59;5.33;;;3.10;;
22665;SDS011;11499;49.486;11.104;2023-03-31T09:31:27;5.13;;;3.60;;
22665;SDS011;11499;49.486;11.104;2023-03-31T09:33:56;4.97;;;3.40;;
22665;SDS011;11499;49.486;11.104;2023-03-31T09:36:25;3.87;;;3.40;;
22665;SDS011;11499;49.486;11.104;2023-03-31T09:38:50;5.67;;;3.00;;
22665;SDS011;11499;49.486;11.104;2023-03-31T09:41:16;4.17;;;3.17;;
22665;SDS011;11499;49.486;11.104;2023-03-31T09:46:29;4.87;;;3.53;;
22665;SDS011;11499;49.486;11.104;2023-03-31T09:49:03;5.23;;;3.63;;
22665;SDS011;11499;49.486;11.104;2023-03-31T09:51:39;4.03;;;2.97;;
22665;SDS011;11499;49.486;11.104;2023-03-31T09:54:21;3.90;;;3.00;;
22665;SDS011;11499;49.486;11.104;2023-03-31T09:57:15;4.43;;;2.80;;
22665;SDS011;11499;49.486;11.104;2023-03-31T10:00:15;3.58;;;2.92;;
22665;SDS011;11499;49.486;11.104;2023-03-31T10:02:46;6.75;;;3.00;;
22665;SDS011;11499;49.486;11.104;2023-03-31T10:13:40;2.72;;;2.13;;
22665;SDS011;11499;49.486;11.104;2023-03-31T10:19:42;2.88;;;2.20;;
22665;SDS011;11499;49.486;11.104;2023-03-31T10:21:56;3.90;;;2.05;;
22665;SDS011;11499;49.486;11.104;2023-03-31T10:24:23;3.38;;;1.92;;
22665;SDS011;11499;49.486;11.104;2023-03-31T10:26:54;4.43;;;2.33;;
22665;SDS011;11499;49.486;11.104;2023-03-31T10:29:31;3.42;;;1.90;;
22665;SDS011;11499;49.486;11.104;2023-03-31T10:32:08;4.57;;;1.70;;
22665;SDS011;11499;49.486;11.104;2023-03-31T10:34:42;4.22;;;2.17;;
22665;SDS011;11499;49.486;11.104;2023-03-31T10:39:59;6.55;;;2.45;;
22665;SDS011;11499;49.486;11.104;2023-03-31T10:42:33;3.20;;;1.90;;
22665;SDS011;11499;49.486;11.104;2023-03-31T10:47:49;5.30;;;2.30;;
22665;SDS011;11499;49.486;11.104;2023-03-31T10:50:32;3.47;;;2.10;;
22665;SDS011;11499;49.486;11.104;2023-03-31T10:53:01;2.33;;;1.47;;
22665;SDS011;11499;49.486;11.104;2023-03-31T10:55:33;3.00;;;1.80;;
22665;SDS011;11499;49.486;11.104;2023-03-31T11:04:02;3.67;;;2.13;;
22665;SDS011;11499;49.486;11.104;2023-03-31T11:11:09;2.55;;;1.60;;
22665;SDS011;11499;49.486;11.104;2023-03-31T11:14:00;3.23;;;1.50;;
22665;SDS011;11499;49.486;11.104;2023-03-31T11:16:59;5.63;;;1.90;;
22665;SDS011;11499;49.486;11.104;2023-03-31T11:22:33;3.00;;;1.70;;
22665;SDS011;11499;49.486;11.104;2023-03-31T11:31:06;4.30;;;1.73;;
22665;SDS011;11499;49.486;11.104;2023-03-31T11:35:51;3.78;;;1.25;;
22665;SDS011;11499;49.486;11.104;2023-03-31T11:38:35;2.83;;;1.60;;
22665;SDS011;11499;49.486;11.104;2023-03-31T11:41:30;3.38;;;1.45;;
22665;SDS011;11499;49.486;11.104;2023-03-31T11:44:01;4.03;;;1.50;;
22665;SDS011;11499;49.486;11.104;2023-03-31T11:49:25;2.97;;;1.40;;
22665;SDS011;11499;49.486;11.104;2023-03-31T11:52:05;3.47;;;1.40;;
22665;SDS011;11499;49.486;11.104;2023-03-31T11:54:53;4.40;;;1.48;;
22665;SDS011;11499;49.486;11.104;2023-03-31T11:57:27;2.80;;;1.20;;
22665;SDS011;11499;49.486;11.104;2023-03-31T12:02:46;5.30;;;1.60;;
22665;SDS011;11499;49.486;11.104;2023-03-31T12:05:18;5.30;;;1.57;;
22665;SDS011;11499;49.486;11.104;2023-03-31T12:07:47;2.43;;;1.23;;
22665;SDS011;11499;49.486;11.104;2023-03-31T12:10:30;6.20;;;1.60;;
22665;SDS011;11499;49.486;11.104;2023-03-31T12:15:30;3.27;;;1.30;;
22665;SDS011;11499;49.486;11.104;2023-03-31T12:18:09;1.00;;;0.90;;
22665;SDS011;11499;49.486;11.104;2023-03-31T12:20:48;3.50;;;1.70;;
22665;SDS011;11499;49.486;11.104;2023-03-31T12:23:17;2.03;;;1.40;;
22665;SDS011;11499;49.486;11.104;2023-03-31T12:29:33;2.37;;;0.87;;
22665;SDS011;11499;49.486;11.104;2023-03-31T12:32:09;2.73;;;1.00;;
22665;SDS011;11499;49.486;11.104;2023-03-31T12:34:45;1.67;;;0.80;;
22665;SDS011;11499;49.486;11.104;2023-03-31T12:39:58;5.17;;;1.20;;
22665;SDS011;11499;49.486;11.104;2023-03-31T12:45:35;2.17;;;1.17;;
22665;SDS011;11499;49.486;11.104;2023-03-31T12:48:25;1.37;;;0.90;;
22665;SDS011;11499;49.486;11.104;2023-03-31T12:51:19;2.17;;;0.90;;
22665;SDS011;11499;49.486;11.104;2023-03-31T12:57:19;2.53;;;0.80;;
22665;SDS011;11499;49.486;11.104;2023-03-31T13:00:07;1.77;;;1.07;;
22665;SDS011;11499;49.486;11.104;2023-03-31T13:02:36;2.77;;;1.00;;
22665;SDS011;11499;49.486;11.104;2023-03-31T13:08:02;2.33;;;1.00;;
22665;SDS011;11499;49.486;11.104;2023-03-31T13:10:30;4.73;;;1.70;;
22665;SDS011;11499;49.486;11.104;2023-03-31T13:15:30;1.67;;;1.00;;
22665;SDS011;11499;49.486;11.104;2023-03-31T13:17:58;1.63;;;1.00;;
22665;SDS011;11499;49.486;11.104;2023-03-31T13:23:22;2.80;;;1.00;;
22665;SDS011;11499;49.486;11.104;2023-03-31T13:38:51;0.97;;;0.77;;
22665;SDS011;11499;49.486;11.104;2023-03-31T13:41:43;1.20;;;0.80;;
22665;SDS011;11499;49.486;11.104;2023-03-31T13:59:12;2.57;;;1.40;;
22665;SDS011;11499;49.486;11.104;2023-03-31T14:02:41;3.60;;;2.10;;
22665;SDS011;11499;49.486;11.104;2023-03-31T14:04:55;3.97;;;1.67;;
22665;SDS011;11499;49.486;11.104;2023-03-31T14:07:37;3.00;;;1.00;;
22665;SDS011;11499;49.486;11.104;2023-03-31T14:10:26;6.80;;;1.60;;
22665;SDS011;11499;49.486;11.104;2023-03-31T14:13:03;1.67;;;1.00;;
22665;SDS011;11499;49.486;11.104;2023-03-31T14:16:00;3.97;;;1.30;;
22665;SDS011;11499;49.486;11.104;2023-03-31T14:18:30;4.80;;;1.20;;
22665;SDS011;11499;49.486;11.104;2023-03-31T14:21:17;6.60;;;1.77;;
22665;SDS011;11499;49.486;11.104;2023-03-31T14:23:53;4.17;;;1.50;;
22665;SDS011;11499;49.486;11.104;2023-03-31T14:31:56;2.57;;;1.33;;
22665;SDS011;11499;49.486;11.104;2023-03-31T14:34:43;2.77;;;1.20;;
22665;SDS011;11499;49.486;11.104;2023-03-31T14:37:23;3.00;;;1.20;;
22665;SDS011;11499;49.486;11.104;2023-03-31T14:45:04;2.50;;;1.37;;
22665;SDS011;11499;49.486;11.104;2023-03-31T14:47:39;4.03;;;1.20;;
22665;SDS011;11499;49.486;11.104;2023-03-31T14:50:10;1.80;;;0.90;;
22665;SDS011;11499;49.486;11.104;2023-03-31T14:52:37;1.67;;;0.97;;
22665;SDS011;11499;49.486;11.104;2023-03-31T14:55:03;2.53;;;1.30;;
22665;SDS011;11499;49.486;11.104;2023-03-31T14:57:31;1.77;;;1.00;;
22665;SDS011;11499;49.486;11.104;2023-03-31T14:59:59;2.13;;;0.97;;
22665;SDS011;11499;49.486;11.104;2023-03-31T15:02:33;1.93;;;0.90;;
22665;SDS011;11499;49.486;11.104;2023-03-31T15:05:02;3.57;;;1.23;;
22665;SDS011;11499;49.486;11.104;2023-03-31T15:09:59;2.97;;;1.30;;
22665;SDS011;11499;49.486;11.104;2023-03-31T15:12:26;2.50;;;0.80;;
22665;SDS011;11499;49.486;11.104;2023-03-31T15:14:57;2.60;;;0.97;;
22665;SDS011;11499;49.486;11.104;2023-03-31T15:17:29;2.60;;;1.00;;
22665;SDS011;11499;49.486;11.104;2023-03-31T15:20:00;3.93;;;1.30;;
22665;SDS011;11499;49.486;11.104;2023-03-31T15:22:44;2.97;;;1.13;;
22665;SDS011;11499;49.486;11.104;2023-03-31T15:25:13;2.30;;;1.00;;
22665;SDS011;11499;49.486;11.104;2023-03-31T15:27:46;3.97;;;1.20;;
22665;SDS011;11499;49.486;11.104;2023-03-31T15:32:46;3.23;;;1.10;;
22665;SDS011;11499;49.486;11.104;2023-03-31T15:35:22;2.50;;;1.17;;
22665;SDS011;11499;49.486;11.104;2023-03-31T15:37:55;4.87;;;1.30;;
22665;SDS011;11499;49.486;11.104;2023-03-31T15:42:58;3.03;;;1.10;;
22665;SDS011;11499;49.486;11.104;2023-03-31T15:45:36;2.03;;;1.00;;
22665;SDS011;11499;49.486;11.104;2023-03-31T15:48:02;2.63;;;1.10;;
22665;SDS011;11499;49.486;11.104;2023-03-31T15:50:28;3.40;;;1.13;;
22665;SDS011;11499;49.486;11.104;2023-03-31T15:52:56;2.63;;;1.07;;
22665;SDS011;11499;49.486;11.104;2023-03-31T15:57:48;2.83;;;1.10;;
22665;SDS011;11499;49.486;11.104;2023-03-31T16:01:00;3.63;;;1.13;;
22665;SDS011;11499;49.486;11.104;2023-03-31T16:03:04;3.30;;;1.20;;
22665;SDS011;11499;49.486;11.104;2023-03-31T16:05:39;4.07;;;1.40;;
22665;SDS011;11499;49.486;11.104;2023-03-31T16:10:14;4.20;;;1.43;;
22665;SDS011;11499;49.486;11.104;2023-03-31T16:15:32;1.40;;;0.87;;
22665;SDS011;11499;49.486;11.104;2023-03-31T16:18:10;1.83;;;0.90;;
22665;SDS011;11499;49.486;11.104;2023-03-31T16:20:42;3.13;;;1.20;;
22665;SDS011;11499;49.486;11.104;2023-03-31T16:23:18;2.43;;;1.00;;
22665;SDS011;11499;49.486;11.104;2023-03-31T16:25:46;2.47;;;0.90;;
22665;SDS011;11499;49.486;11.104;2023-03-31T16:28:15;3.00;;;1.07;;
22665;SDS011;11499;49.486;11.104;2023-03-31T16:30:44;5.00;;;1.10;;
22665;SDS011;11499;49.486;11.104;2023-03-31T16:33:11;3.53;;;1.27;;
22665;SDS011;11499;49.486;11.104;2023-03-31T16:37:58;2.80;;;1.00;;
22665;SDS011;11499;49.486;11.104;2023-03-31T16:40:26;3.80;;;1.23;;
22665;SDS011;11499;49.486;11.104;2023-03-31T16:45:53;3.73;;;1.43;;
22665;SDS011;11499;49.486;11.104;2023-03-31T16:48:21;4.17;;;1.13;;
22665;SDS011;11499;49.486;11.104;2023-03-31T16:50:49;3.63;;;1.27;;
22665;SDS011;11499;49.486;11.104;2023-03-31T16:53:21;3.33;;;1.10;;
22665;SDS011;11499;49.486;11.104;2023-03-31T16:55:48;2.23;;;1.17;;
22665;SDS011;11499;49.486;11.104;2023-03-31T16:58:14;3.10;;;1.20;;
22665;SDS011;11499;49.486;11.104;2023-03-31T17:00:40;2.77;;;1.23;;
22665;SDS011;11499;49.486;11.104;2023-03-31T17:04:50;2.43;;;1.20;;
22665;SDS011;11499;49.486;11.104;2023-03-31T17:07:15;3.10;;;1.47;;
22665;SDS011;11499;49.486;11.104;2023-03-31T17:09:41;2.50;;;1.20;;
22665;SDS011;11499;49.486;11.104;2023-03-31T17:12:06;2.97;;;1.30;;
22665;SDS011;11499;49.486;11.104;2023-03-31T17:14:32;3.80;;;1.50;;
22665;SDS011;11499;49.486;11.104;2023-03-31T17:16:57;2.63;;;1.20;;
22665;SDS011;11499;49.486;11.104;2023-03-31T17:19:23;3.13;;;1.50;;
22665;SDS011;11499;49.486;11.104;2023-03-31T17:21:51;4.60;;;1.63;;
22665;SDS011;11499;49.486;11.104;2023-03-31T17:24:16;5.33;;;1.53;;
22665;SDS011;11499;49.486;11.104;2023-03-31T17:26:41;3.07;;;1.43;;
22665;SDS011;11499;49.486;11.104;2023-03-31T17:31:42;4.10;;;1.50;;
22665;SDS011;11499;49.486;11.104;2023-03-31T17:34:08;2.70;;;1.30;;
22665;SDS011;11499;49.486;11.104;2023-03-31T17:36:34;2.97;;;1.30;;
22665;SDS011;11499;49.486;11.104;2023-03-31T17:39:00;3.20;;;1.27;;
22665;SDS011;11499;49.486;11.104;2023-03-31T17:41:26;3.83;;;1.30;;
22665;SDS011;11499;49.486;11.104;2023-03-31T17:43:55;2.87;;;1.17;;
22665;SDS011;11499;49.486;11.104;2023-03-31T17:46:21;3.97;;;1.30;;
22665;SDS011;11499;49.486;11.104;2023-03-31T17:48:46;3.40;;;1.33;;
22665;SDS011;11499;49.486;11.104;2023-03-31T17:51:16;4.63;;;1.90;;
22665;SDS011;11499;49.486;11.104;2023-03-31T17:53:43;3.53;;;1.70;;
22665;SDS011;11499;49.486;11.104;2023-03-31T17:58:50;4.17;;;1.60;;
22665;SDS011;11499;49.486;11.104;2023-03-31T18:01:16;4.20;;;1.40;;
22665;SDS011;11499;49.486;11.104;2023-03-31T18:03:43;2.47;;;1.37;;
22665;SDS011;11499;49.486;11.104;2023-03-31T18:06:10;3.67;;;1.50;;
22665;SDS011;11499;49.486;11.104;2023-03-31T18:08:37;3.00;;;1.57;;
22665;SDS011;11499;49.486;11.104;2023-03-31T18:11:04;3.93;;;1.60;;
22665;SDS011;11499;49.486;11.104;2023-03-31T18:13:32;3.63;;;1.43;;
22665;SDS011;11499;49.486;11.104;2023-03-31T18:15:59;4.60;;;1.63;;
22665;SDS011;11499;49.486;11.104;2023-03-31T18:18:24;3.97;;;1.60;;
22665;SDS011;11499;49.486;11.104;2023-03-31T18:20:52;2.27;;;1.47;;
22665;SDS011;11499;49.486;11.104;2023-03-31T18:23:17;3.53;;;1.50;;
22665;SDS011;11499;49.486;11.104;2023-03-31T18:25:43;2.40;;;1.43;;
22665;SDS011;11499;49.486;11.104;2023-03-31T18:31:03;1.37;;;0.90;;
22665;SDS011;11499;49.486;11.104;2023-03-31T18:33:29;3.87;;;1.33;;
22665;SDS011;11499;49.486;11.104;2023-03-31T18:35:55;2.53;;;1.10;;
22665;SDS011;11499;49.486;11.104;2023-03-31T18:38:24;2.10;;;1.20;;
22665;SDS011;11499;49.486;11.104;2023-03-31T18:40:51;2.87;;;1.20;;